sensor_id;sensor_type;location;lat;lon;timestamp;P1;durP1;ratioP1;P2;durP2;ratioP2
73919;SDS011;62266;53.348;-1.496;2022-09-13T00:00:36;5.22;;;1.80;;
73919;SDS011;62266;53.348;-1.496;2022-09-13T00:03:02;4.10;;;1.80;;
73919;SDS011;62266;53.348;-1.496;2022-09-13T00:05:28;4.93;;;1.77;;
73919;SDS011;62266;53.348;-1.496;2022-09-13T00:07:54;3.95;;;1.70;;
73919;SDS011;62266;53.348;-1.496;2022-09-13T00:10:20;4.40;;;2.10;;
73919;SDS011;62266;53.348;-1.496;2022-09-13T00:12:47;5.40;;;1.83;;
73919;SDS011;62266;53.348;-1.496;2022-09-13T00:15:13;10.02;;;2.35;;
73919;SDS011;62266;53.348;-1.496;2022-09-13T00:17:39;3.65;;;1.88;;
73919;SDS011;62266;53.348;-1.496;2022-09-13T00:20:05;4.13;;;2.50;;
73919;SDS011;62266;53.348;-1.496;2022-09-13T00:22:31;5.82;;;2.13;;
73919;SDS011;62266;53.348;-1.496;2022-09-13T00:24:57;4.85;;;2.30;;
73919;SDS011;62266;53.348;-1.496;2022-09-13T00:27:22;4.77;;;2.13;;
73919;SDS011;62266;53.348;-1.496;2022-09-13T00:29:48;5.17;;;2.10;;
73919;SDS011;62266;53.348;-1.496;2022-09-13T00:32:13;4.97;;;2.28;;
73919;SDS011;62266;53.348;-1.496;2022-09-13T00:34:39;6.23;;;1.90;;
73919;SDS011;62266;53.348;-1.496;2022-09-13T00:37:04;4.50;;;2.20;;
73919;SDS011;62266;53.348;-1.496;2022-09-13T00:39:30;7.32;;;2.50;;
73919;SDS011;62266;53.348;-1.496;2022-09-13T00:41:56;5.13;;;2.33;;
73919;SDS011;62266;53.348;-1.496;2022-09-13T00:47:28;4.20;;;2.25;;
73919;SDS011;62266;53.348;-1.496;2022-09-13T00:50:04;6.80;;;2.45;;
73919;SDS011;62266;53.348;-1.496;2022-09-13T00:52:31;6.30;;;2.70;;
73919;SDS011;62266;53.348;-1.496;2022-09-13T00:55:00;5.40;;;2.75;;
73919;SDS011;62266;53.348;-1.496;2022-09-13T00:57:29;7.63;;;3.22;;
73919;SDS011;62266;53.348;-1.496;2022-09-13T01:02:25;7.03;;;3.08;;
73919;SDS011;62266;53.348;-1.496;2022-09-13T01:04:51;6.47;;;2.63;;
73919;SDS011;62266;53.348;-1.496;2022-09-13T01:07:17;4.57;;;2.63;;
73919;SDS011;62266;53.348;-1.496;2022-09-13T01:09:44;7.25;;;2.50;;
73919;SDS011;62266;53.348;-1.496;2022-09-13T01:12:16;7.55;;;2.80;;
73919;SDS011;62266;53.348;-1.496;2022-09-13T01:14:50;8.20;;;2.73;;
73919;SDS011;62266;53.348;-1.496;2022-09-13T01:17:16;6.22;;;2.30;;
73919;SDS011;62266;53.348;-1.496;2022-09-13T01:19:42;5.30;;;2.22;;
73919;SDS011;62266;53.348;-1.496;2022-09-13T01:30:10;6.60;;;2.35;;
73919;SDS011;62266;53.348;-1.496;2022-09-13T01:35:50;5.40;;;2.20;;
73919;SDS011;62266;53.348;-1.496;2022-09-13T01:46:49;5.10;;;2.55;;
73919;SDS011;62266;53.348;-1.496;2022-09-13T01:49:42;5.10;;;2.50;;
73919;SDS011;62266;53.348;-1.496;2022-09-13T01:52:28;4.80;;;2.70;;
73919;SDS011;62266;53.348;-1.496;2022-09-13T01:58:14;6.43;;;2.10;;
73919;SDS011;62266;53.348;-1.496;2022-09-13T02:01:06;7.15;;;2.53;;
73919;SDS011;62266;53.348;-1.496;2022-09-13T02:03:40;4.13;;;2.07;;
73919;SDS011;62266;53.348;-1.496;2022-09-13T02:06:13;5.60;;;2.58;;
73919;SDS011;62266;53.348;-1.496;2022-09-13T02:08:54;7.20;;;2.35;;
73919;SDS011;62266;53.348;-1.496;2022-09-13T02:11:22;7.53;;;2.00;;
73919;SDS011;62266;53.348;-1.496;2022-09-13T02:13:49;4.20;;;1.77;;
73919;SDS011;62266;53.348;-1.496;2022-09-13T02:16:37;5.45;;;1.77;;
73919;SDS011;62266;53.348;-1.496;2022-09-13T02:19:13;11.65;;;2.00;;
73919;SDS011;62266;53.348;-1.496;2022-09-13T02:21:42;8.88;;;2.80;;
73919;SDS011;62266;53.348;-1.496;2022-09-13T02:24:17;4.93;;;2.20;;
73919;SDS011;62266;53.348;-1.496;2022-09-13T02:26:45;6.53;;;2.50;;
73919;SDS011;62266;53.348;-1.496;2022-09-13T02:29:15;4.90;;;1.83;;
73919;SDS011;62266;53.348;-1.496;2022-09-13T02:31:44;4.57;;;2.25;;
73919;SDS011;62266;53.348;-1.496;2022-09-13T02:34:20;6.47;;;2.58;;
73919;SDS011;62266;53.348;-1.496;2022-09-13T02:36:48;5.65;;;1.98;;
73919;SDS011;62266;53.348;-1.496;2022-09-13T02:39:16;8.33;;;2.30;;
73919;SDS011;62266;53.348;-1.496;2022-09-13T02:41:55;7.28;;;2.30;;
73919;SDS011;62266;53.348;-1.496;2022-09-13T02:44:30;6.03;;;2.40;;
73919;SDS011;62266;53.348;-1.496;2022-09-13T02:57:49;7.10;;;2.17;;
73919;SDS011;62266;53.348;-1.496;2022-09-13T03:00:34;6.25;;;1.90;;
73919;SDS011;62266;53.348;-1.496;2022-09-13T03:03:04;6.95;;;1.83;;
73919;SDS011;62266;53.348;-1.496;2022-09-13T03:05:32;6.03;;;1.87;;
73919;SDS011;62266;53.348;-1.496;2022-09-13T03:07:57;5.55;;;1.90;;
73919;SDS011;62266;53.348;-1.496;2022-09-13T03:10:23;5.80;;;1.60;;
73919;SDS011;62266;53.348;-1.496;2022-09-13T03:13:00;4.72;;;2.13;;
73919;SDS011;62266;53.348;-1.496;2022-09-13T03:15:47;4.75;;;1.55;;
73919;SDS011;62266;53.348;-1.496;2022-09-13T03:26:42;3.15;;;1.52;;
73919;SDS011;62266;53.348;-1.496;2022-09-13T03:38:02;2.80;;;1.53;;
73919;SDS011;62266;53.348;-1.496;2022-09-13T03:46:04;3.40;;;1.58;;
73919;SDS011;62266;53.348;-1.496;2022-09-13T03:48:36;5.20;;;1.60;;
73919;SDS011;62266;53.348;-1.496;2022-09-13T03:51:06;5.30;;;1.60;;
73919;SDS011;62266;53.348;-1.496;2022-09-13T03:53:33;6.00;;;1.70;;
73919;SDS011;62266;53.348;-1.496;2022-09-13T03:56:00;4.53;;;1.55;;
73919;SDS011;62266;53.348;-1.496;2022-09-13T03:58:26;4.20;;;1.70;;
73919;SDS011;62266;53.348;-1.496;2022-09-13T04:00:51;2.92;;;1.60;;
73919;SDS011;62266;53.348;-1.496;2022-09-13T04:03:18;3.72;;;1.50;;
73919;SDS011;62266;53.348;-1.496;2022-09-13T04:05:44;3.57;;;1.20;;
73919;SDS011;62266;53.348;-1.496;2022-09-13T04:08:10;5.72;;;1.70;;
73919;SDS011;62266;53.348;-1.496;2022-09-13T04:10:39;3.80;;;1.50;;
73919;SDS011;62266;53.348;-1.496;2022-09-13T04:13:05;2.30;;;1.23;;
73919;SDS011;62266;53.348;-1.496;2022-09-13T04:15:30;6.47;;;1.35;;
73919;SDS011;62266;53.348;-1.496;2022-09-13T04:17:56;3.80;;;1.37;;
73919;SDS011;62266;53.348;-1.496;2022-09-13T04:20:21;1.80;;;1.30;;
73919;SDS011;62266;53.348;-1.496;2022-09-13T04:22:51;4.30;;;1.33;;
73919;SDS011;62266;53.348;-1.496;2022-09-13T04:25:17;1.80;;;1.10;;
73919;SDS011;62266;53.348;-1.496;2022-09-13T04:27:43;3.28;;;1.38;;
73919;SDS011;62266;53.348;-1.496;2022-09-13T04:30:09;4.35;;;1.13;;
73919;SDS011;62266;53.348;-1.496;2022-09-13T04:32:35;2.35;;;1.05;;
73919;SDS011;62266;53.348;-1.496;2022-09-13T04:35:01;2.60;;;1.40;;
73919;SDS011;62266;53.348;-1.496;2022-09-13T04:37:28;1.98;;;1.00;;
73919;SDS011;62266;53.348;-1.496;2022-09-13T04:39:53;4.13;;;1.20;;
73919;SDS011;62266;53.348;-1.496;2022-09-13T04:42:19;2.67;;;1.20;;
73919;SDS011;62266;53.348;-1.496;2022-09-13T04:44:45;2.03;;;1.10;;
73919;SDS011;62266;53.348;-1.496;2022-09-13T04:47:14;7.15;;;1.50;;
73919;SDS011;62266;53.348;-1.496;2022-09-13T04:49:40;2.40;;;1.00;;
73919;SDS011;62266;53.348;-1.496;2022-09-13T04:52:05;3.37;;;1.20;;
73919;SDS011;62266;53.348;-1.496;2022-09-13T04:54:31;3.25;;;1.10;;
73919;SDS011;62266;53.348;-1.496;2022-09-13T04:56:57;3.03;;;1.23;;
73919;SDS011;62266;53.348;-1.496;2022-09-13T04:59:23;3.23;;;1.17;;
73919;SDS011;62266;53.348;-1.496;2022-09-13T05:01:49;4.37;;;1.63;;
73919;SDS011;62266;53.348;-1.496;2022-09-13T05:04:14;2.63;;;1.00;;
73919;SDS011;62266;53.348;-1.496;2022-09-13T05:06:40;3.33;;;1.20;;
73919;SDS011;62266;53.348;-1.496;2022-09-13T05:09:06;4.10;;;1.30;;
73919;SDS011;62266;53.348;-1.496;2022-09-13T05:11:31;2.33;;;1.07;;
73919;SDS011;62266;53.348;-1.496;2022-09-13T05:13:58;3.53;;;1.40;;
73919;SDS011;62266;53.348;-1.496;2022-09-13T05:16:28;5.28;;;1.20;;
73919;SDS011;62266;53.348;-1.496;2022-09-13T05:18:55;4.63;;;1.30;;
73919;SDS011;62266;53.348;-1.496;2022-09-13T05:21:21;3.28;;;1.50;;
73919;SDS011;62266;53.348;-1.496;2022-09-13T05:23:48;2.07;;;1.23;;
73919;SDS011;62266;53.348;-1.496;2022-09-13T05:26:14;4.20;;;1.20;;
73919;SDS011;62266;53.348;-1.496;2022-09-13T05:28:40;3.10;;;1.30;;
73919;SDS011;62266;53.348;-1.496;2022-09-13T05:31:06;4.27;;;1.17;;
73919;SDS011;62266;53.348;-1.496;2022-09-13T05:33:36;3.22;;;1.45;;
73919;SDS011;62266;53.348;-1.496;2022-09-13T05:36:03;5.03;;;1.20;;
73919;SDS011;62266;53.348;-1.496;2022-09-13T05:38:29;4.67;;;1.20;;
73919;SDS011;62266;53.348;-1.496;2022-09-13T05:40:59;4.28;;;1.10;;
73919;SDS011;62266;53.348;-1.496;2022-09-13T05:43:26;3.47;;;1.00;;
73919;SDS011;62266;53.348;-1.496;2022-09-13T05:48:48;4.07;;;1.30;;
73919;SDS011;62266;53.348;-1.496;2022-09-13T05:51:19;4.63;;;1.40;;
73919;SDS011;62266;53.348;-1.496;2022-09-13T05:53:46;3.65;;;1.17;;
73919;SDS011;62266;53.348;-1.496;2022-09-13T05:56:15;4.73;;;1.20;;
73919;SDS011;62266;53.348;-1.496;2022-09-13T05:58:46;2.67;;;1.10;;
73919;SDS011;62266;53.348;-1.496;2022-09-13T06:01:18;5.90;;;1.65;;
73919;SDS011;62266;53.348;-1.496;2022-09-13T06:03:46;5.15;;;1.20;;
73919;SDS011;62266;53.348;-1.496;2022-09-13T06:06:14;2.75;;;1.35;;
73919;SDS011;62266;53.348;-1.496;2022-09-13T06:08:39;2.73;;;1.00;;
73919;SDS011;62266;53.348;-1.496;2022-09-13T06:11:06;2.97;;;1.20;;
73919;SDS011;62266;53.348;-1.496;2022-09-13T06:13:34;5.45;;;1.55;;
73919;SDS011;62266;53.348;-1.496;2022-09-13T06:16:00;2.53;;;1.13;;
73919;SDS011;62266;53.348;-1.496;2022-09-13T06:18:28;3.75;;;1.15;;
73919;SDS011;62266;53.348;-1.496;2022-09-13T06:21:00;3.00;;;1.10;;
73919;SDS011;62266;53.348;-1.496;2022-09-13T06:23:38;2.67;;;1.40;;
73919;SDS011;62266;53.348;-1.496;2022-09-13T06:26:04;6.32;;;1.45;;
73919;SDS011;62266;53.348;-1.496;2022-09-13T06:28:34;3.30;;;1.30;;
73919;SDS011;62266;53.348;-1.496;2022-09-13T06:31:04;4.10;;;1.25;;
73919;SDS011;62266;53.348;-1.496;2022-09-13T06:33:34;4.32;;;1.27;;
73919;SDS011;62266;53.348;-1.496;2022-09-13T06:36:04;4.00;;;1.40;;
73919;SDS011;62266;53.348;-1.496;2022-09-13T06:38:31;2.75;;;1.35;;
73919;SDS011;62266;53.348;-1.496;2022-09-13T06:41:10;2.87;;;1.47;;
73919;SDS011;62266;53.348;-1.496;2022-09-13T06:43:38;5.03;;;1.85;;
73919;SDS011;62266;53.348;-1.496;2022-09-13T06:46:09;2.65;;;1.58;;
73919;SDS011;62266;53.348;-1.496;2022-09-13T06:48:39;2.78;;;1.65;;
73919;SDS011;62266;53.348;-1.496;2022-09-13T06:51:06;3.10;;;1.50;;
73919;SDS011;62266;53.348;-1.496;2022-09-13T06:53:34;3.97;;;2.00;;
73919;SDS011;62266;53.348;-1.496;2022-09-13T06:56:01;6.03;;;1.60;;
73919;SDS011;62266;53.348;-1.496;2022-09-13T06:58:30;2.92;;;1.42;;
73919;SDS011;62266;53.348;-1.496;2022-09-13T07:01:16;3.92;;;1.30;;
73919;SDS011;62266;53.348;-1.496;2022-09-13T07:03:44;3.63;;;1.17;;
73919;SDS011;62266;53.348;-1.496;2022-09-13T07:06:12;3.15;;;0.93;;
73919;SDS011;62266;53.348;-1.496;2022-09-13T07:08:42;4.32;;;1.08;;
73919;SDS011;62266;53.348;-1.496;2022-09-13T07:11:09;3.15;;;1.05;;
73919;SDS011;62266;53.348;-1.496;2022-09-13T07:13:36;2.63;;;1.00;;
73919;SDS011;62266;53.348;-1.496;2022-09-13T07:16:06;3.17;;;1.43;;
73919;SDS011;62266;53.348;-1.496;2022-09-13T07:18:33;4.45;;;2.00;;
73919;SDS011;62266;53.348;-1.496;2022-09-13T07:21:03;4.47;;;2.20;;
73919;SDS011;62266;53.348;-1.496;2022-09-13T07:23:33;5.77;;;1.97;;
73919;SDS011;62266;53.348;-1.496;2022-09-13T07:26:00;4.93;;;1.70;;
73919;SDS011;62266;53.348;-1.496;2022-09-13T07:28:37;4.20;;;1.95;;
73919;SDS011;62266;53.348;-1.496;2022-09-13T07:33:34;8.43;;;2.30;;
73919;SDS011;62266;53.348;-1.496;2022-09-13T07:36:00;2.80;;;1.77;;
73919;SDS011;62266;53.348;-1.496;2022-09-13T07:38:37;5.00;;;1.73;;
73919;SDS011;62266;53.348;-1.496;2022-09-13T07:41:05;4.03;;;1.30;;
73919;SDS011;62266;53.348;-1.496;2022-09-13T07:43:33;6.88;;;1.70;;
73919;SDS011;62266;53.348;-1.496;2022-09-13T07:46:10;3.67;;;1.70;;
73919;SDS011;62266;53.348;-1.496;2022-09-13T07:48:40;5.30;;;1.97;;
73919;SDS011;62266;53.348;-1.496;2022-09-13T07:51:07;3.55;;;1.48;;
73919;SDS011;62266;53.348;-1.496;2022-09-13T07:53:35;3.03;;;1.15;;
73919;SDS011;62266;53.348;-1.496;2022-09-13T07:58:28;4.68;;;1.40;;
73919;SDS011;62266;53.348;-1.496;2022-09-13T08:00:55;3.40;;;1.37;;
73919;SDS011;62266;53.348;-1.496;2022-09-13T08:03:24;4.30;;;1.20;;
73919;SDS011;62266;53.348;-1.496;2022-09-13T08:05:50;6.33;;;1.53;;
73919;SDS011;62266;53.348;-1.496;2022-09-13T08:08:15;3.13;;;1.40;;
73919;SDS011;62266;53.348;-1.496;2022-09-13T08:10:41;3.13;;;0.97;;
73919;SDS011;62266;53.348;-1.496;2022-09-13T08:13:06;6.20;;;1.53;;
73919;SDS011;62266;53.348;-1.496;2022-09-13T08:15:32;6.78;;;1.48;;
73919;SDS011;62266;53.348;-1.496;2022-09-13T08:17:58;2.70;;;0.87;;
73919;SDS011;62266;53.348;-1.496;2022-09-13T08:20:23;4.78;;;0.88;;
73919;SDS011;62266;53.348;-1.496;2022-09-13T08:22:49;3.07;;;0.90;;
73919;SDS011;62266;53.348;-1.496;2022-09-13T08:25:14;1.33;;;0.77;;
73919;SDS011;62266;53.348;-1.496;2022-09-13T08:27:40;5.57;;;1.30;;
73919;SDS011;62266;53.348;-1.496;2022-09-13T08:30:06;3.57;;;0.90;;
73919;SDS011;62266;53.348;-1.496;2022-09-13T08:32:31;3.58;;;1.08;;
73919;SDS011;62266;53.348;-1.496;2022-09-13T08:34:57;3.28;;;1.00;;
73919;SDS011;62266;53.348;-1.496;2022-09-13T08:37:23;1.80;;;0.77;;
73919;SDS011;62266;53.348;-1.496;2022-09-13T08:39:48;4.40;;;1.02;;
73919;SDS011;62266;53.348;-1.496;2022-09-13T08:44:58;3.83;;;0.80;;
73919;SDS011;62266;53.348;-1.496;2022-09-13T08:47:44;3.77;;;0.90;;
73919;SDS011;62266;53.348;-1.496;2022-09-13T08:50:28;4.75;;;1.20;;
73919;SDS011;62266;53.348;-1.496;2022-09-13T08:58:32;4.20;;;0.83;;
73919;SDS011;62266;53.348;-1.496;2022-09-13T09:03:48;3.63;;;0.50;;
73919;SDS011;62266;53.348;-1.496;2022-09-13T09:06:18;2.55;;;0.55;;
73919;SDS011;62266;53.348;-1.496;2022-09-13T09:09:06;2.17;;;0.35;;
73919;SDS011;62266;53.348;-1.496;2022-09-13T09:11:40;2.67;;;0.60;;
73919;SDS011;62266;53.348;-1.496;2022-09-13T09:14:20;1.33;;;0.70;;
73919;SDS011;62266;53.348;-1.496;2022-09-13T09:16:58;4.05;;;0.50;;
73919;SDS011;62266;53.348;-1.496;2022-09-13T09:19:27;1.83;;;0.60;;
73919;SDS011;62266;53.348;-1.496;2022-09-13T09:21:58;3.22;;;0.50;;
73919;SDS011;62266;53.348;-1.496;2022-09-13T09:24:26;1.67;;;0.40;;
73919;SDS011;62266;53.348;-1.496;2022-09-13T09:26:55;2.75;;;0.40;;
73919;SDS011;62266;53.348;-1.496;2022-09-13T09:29:23;1.53;;;0.40;;
73919;SDS011;62266;53.348;-1.496;2022-09-13T09:35:09;1.80;;;0.30;;
73919;SDS011;62266;53.348;-1.496;2022-09-13T09:37:23;2.13;;;0.52;;
73919;SDS011;62266;53.348;-1.496;2022-09-13T09:39:51;2.47;;;0.60;;
73919;SDS011;62266;53.348;-1.496;2022-09-13T09:42:18;2.90;;;0.40;;
73919;SDS011;62266;53.348;-1.496;2022-09-13T09:45:05;1.00;;;0.55;;
73919;SDS011;62266;53.348;-1.496;2022-09-13T09:47:48;1.80;;;0.38;;
73919;SDS011;62266;53.348;-1.496;2022-09-13T09:50:18;2.15;;;0.65;;
73919;SDS011;62266;53.348;-1.496;2022-09-13T09:52:58;3.65;;;1.25;;
73919;SDS011;62266;53.348;-1.496;2022-09-13T09:58:40;2.20;;;0.70;;
73919;SDS011;62266;53.348;-1.496;2022-09-13T10:06:37;3.03;;;0.70;;
73919;SDS011;62266;53.348;-1.496;2022-09-13T10:09:14;3.13;;;0.80;;
73919;SDS011;62266;53.348;-1.496;2022-09-13T10:14:22;3.67;;;0.70;;
73919;SDS011;62266;53.348;-1.496;2022-09-13T10:19:28;1.95;;;0.60;;
73919;SDS011;62266;53.348;-1.496;2022-09-13T10:21:58;2.38;;;0.90;;
73919;SDS011;62266;53.348;-1.496;2022-09-13T10:24:30;2.47;;;0.65;;
73919;SDS011;62266;53.348;-1.496;2022-09-13T10:26:56;2.70;;;0.63;;
73919;SDS011;62266;53.348;-1.496;2022-09-13T10:29:24;3.08;;;0.68;;
73919;SDS011;62266;53.348;-1.496;2022-09-13T10:31:50;1.45;;;0.82;;
73919;SDS011;62266;53.348;-1.496;2022-09-13T10:34:29;2.65;;;0.80;;
73919;SDS011;62266;53.348;-1.496;2022-09-13T10:37:19;1.45;;;0.60;;
73919;SDS011;62266;53.348;-1.496;2022-09-13T10:39:50;2.60;;;0.70;;
73919;SDS011;62266;53.348;-1.496;2022-09-13T10:42:19;2.45;;;0.70;;
73919;SDS011;62266;53.348;-1.496;2022-09-13T10:45:06;3.15;;;1.00;;
73919;SDS011;62266;53.348;-1.496;2022-09-13T10:47:36;5.53;;;1.02;;
73919;SDS011;62266;53.348;-1.496;2022-09-13T10:50:17;1.90;;;0.80;;
73919;SDS011;62266;53.348;-1.496;2022-09-13T10:52:56;3.53;;;0.70;;
73919;SDS011;62266;53.348;-1.496;2022-09-13T10:57:51;3.30;;;0.77;;
73919;SDS011;62266;53.348;-1.496;2022-09-13T11:00:45;2.28;;;0.68;;
73919;SDS011;62266;53.348;-1.496;2022-09-13T11:06:16;2.60;;;0.70;;
73919;SDS011;62266;53.348;-1.496;2022-09-13T11:11:42;1.92;;;0.85;;
73919;SDS011;62266;53.348;-1.496;2022-09-13T11:17:20;1.77;;;0.63;;
73919;SDS011;62266;53.348;-1.496;2022-09-13T11:28:18;3.30;;;0.73;;
73919;SDS011;62266;53.348;-1.496;2022-09-13T11:39:23;2.58;;;0.70;;
73919;SDS011;62266;53.348;-1.496;2022-09-13T11:42:48;3.58;;;0.85;;
73919;SDS011;62266;53.348;-1.496;2022-09-13T11:45:01;1.85;;;0.70;;
73919;SDS011;62266;53.348;-1.496;2022-09-13T11:47:36;2.73;;;1.00;;
73919;SDS011;62266;53.348;-1.496;2022-09-13T11:55:45;2.97;;;0.70;;
73919;SDS011;62266;53.348;-1.496;2022-09-13T11:58:14;3.72;;;0.85;;
73919;SDS011;62266;53.348;-1.496;2022-09-13T12:00:44;2.40;;;0.50;;
73919;SDS011;62266;53.348;-1.496;2022-09-13T12:03:22;2.13;;;0.60;;
73919;SDS011;62266;53.348;-1.496;2022-09-13T12:06:17;4.00;;;0.80;;
73919;SDS011;62266;53.348;-1.496;2022-09-13T12:08:49;3.13;;;0.82;;
73919;SDS011;62266;53.348;-1.496;2022-09-13T12:11:18;1.52;;;0.60;;
73919;SDS011;62266;53.348;-1.496;2022-09-13T12:13:50;1.93;;;0.60;;
73919;SDS011;62266;53.348;-1.496;2022-09-13T12:16:27;1.40;;;0.68;;
73919;SDS011;62266;53.348;-1.496;2022-09-13T12:19:00;2.63;;;0.80;;
73919;SDS011;62266;53.348;-1.496;2022-09-13T12:21:30;3.50;;;0.90;;
73919;SDS011;62266;53.348;-1.496;2022-09-13T12:29:13;3.08;;;0.68;;
73919;SDS011;62266;53.348;-1.496;2022-09-13T12:31:42;2.27;;;0.53;;
73919;SDS011;62266;53.348;-1.496;2022-09-13T12:34:08;3.42;;;0.70;;
73919;SDS011;62266;53.348;-1.496;2022-09-13T12:55:55;4.22;;;1.02;;
73919;SDS011;62266;53.348;-1.496;2022-09-13T12:58:33;2.60;;;0.80;;
73919;SDS011;62266;53.348;-1.496;2022-09-13T13:01:08;2.55;;;0.90;;
73919;SDS011;62266;53.348;-1.496;2022-09-13T13:03:51;3.20;;;0.80;;
73919;SDS011;62266;53.348;-1.496;2022-09-13T13:09:05;1.70;;;0.45;;
73919;SDS011;62266;53.348;-1.496;2022-09-13T13:11:45;2.30;;;0.40;;
73919;SDS011;62266;53.348;-1.496;2022-09-13T13:19:59;2.50;;;0.70;;
73919;SDS011;62266;53.348;-1.496;2022-09-13T13:28:49;1.15;;;0.40;;
73919;SDS011;62266;53.348;-1.496;2022-09-13T13:31:07;2.10;;;0.50;;
73919;SDS011;62266;53.348;-1.496;2022-09-13T13:33:47;1.90;;;0.40;;
73919;SDS011;62266;53.348;-1.496;2022-09-13T13:36:22;1.77;;;0.52;;
73919;SDS011;62266;53.348;-1.496;2022-09-13T13:38:48;1.20;;;0.50;;
73919;SDS011;62266;53.348;-1.496;2022-09-13T13:46:43;6.03;;;0.60;;
73919;SDS011;62266;53.348;-1.496;2022-09-13T14:05:19;2.75;;;1.00;;
73919;SDS011;62266;53.348;-1.496;2022-09-13T14:07:54;2.17;;;0.60;;
73919;SDS011;62266;53.348;-1.496;2022-09-13T14:19:21;4.68;;;1.20;;
73919;SDS011;62266;53.348;-1.496;2022-09-13T14:21:38;4.93;;;1.15;;
73919;SDS011;62266;53.348;-1.496;2022-09-13T14:26:39;3.20;;;1.00;;
73919;SDS011;62266;53.348;-1.496;2022-09-13T14:29:06;4.13;;;1.00;;
73919;SDS011;62266;53.348;-1.496;2022-09-13T14:31:32;2.65;;;1.10;;
73919;SDS011;62266;53.348;-1.496;2022-09-13T14:33:58;2.65;;;1.10;;
73919;SDS011;62266;53.348;-1.496;2022-09-13T14:36:24;4.10;;;1.20;;
73919;SDS011;62266;53.348;-1.496;2022-09-13T14:38:53;4.70;;;1.30;;
73919;SDS011;62266;53.348;-1.496;2022-09-13T14:41:32;3.85;;;1.38;;
73919;SDS011;62266;53.348;-1.496;2022-09-13T14:46:50;7.03;;;1.40;;
73919;SDS011;62266;53.348;-1.496;2022-09-13T14:49:22;2.42;;;1.20;;
73919;SDS011;62266;53.348;-1.496;2022-09-13T14:51:56;4.20;;;1.02;;
73919;SDS011;62266;53.348;-1.496;2022-09-13T14:57:04;4.03;;;1.13;;
73919;SDS011;62266;53.348;-1.496;2022-09-13T14:59:33;2.97;;;1.77;;
73919;SDS011;62266;53.348;-1.496;2022-09-13T15:02:15;4.80;;;1.58;;
73919;SDS011;62266;53.348;-1.496;2022-09-13T15:04:47;5.13;;;1.67;;
73919;SDS011;62266;53.348;-1.496;2022-09-13T15:07:29;5.75;;;2.10;;
73919;SDS011;62266;53.348;-1.496;2022-09-13T15:09:57;3.83;;;1.90;;
73919;SDS011;62266;53.348;-1.496;2022-09-13T15:12:34;3.25;;;1.80;;
73919;SDS011;62266;53.348;-1.496;2022-09-13T15:15:18;3.78;;;1.60;;
73919;SDS011;62266;53.348;-1.496;2022-09-13T15:17:50;4.68;;;1.83;;
73919;SDS011;62266;53.348;-1.496;2022-09-13T15:20:17;5.38;;;2.05;;
73919;SDS011;62266;53.348;-1.496;2022-09-13T15:22:44;3.90;;;1.40;;
73919;SDS011;62266;53.348;-1.496;2022-09-13T15:25:23;3.67;;;1.60;;
73919;SDS011;62266;53.348;-1.496;2022-09-13T15:27:55;3.88;;;1.85;;
73919;SDS011;62266;53.348;-1.496;2022-09-13T15:30:26;4.57;;;2.00;;
73919;SDS011;62266;53.348;-1.496;2022-09-13T15:33:13;4.80;;;1.95;;
73919;SDS011;62266;53.348;-1.496;2022-09-13T15:35:44;3.05;;;1.70;;
73919;SDS011;62266;53.348;-1.496;2022-09-13T15:38:16;5.20;;;1.50;;
73919;SDS011;62266;53.348;-1.496;2022-09-13T15:41:10;3.72;;;1.70;;
73919;SDS011;62266;53.348;-1.496;2022-09-13T15:43:43;5.53;;;2.20;;
73919;SDS011;62266;53.348;-1.496;2022-09-13T15:46:10;5.57;;;1.70;;
73919;SDS011;62266;53.348;-1.496;2022-09-13T15:48:39;5.05;;;1.80;;
73919;SDS011;62266;53.348;-1.496;2022-09-13T15:51:11;6.20;;;1.75;;
73919;SDS011;62266;53.348;-1.496;2022-09-13T15:53:39;4.40;;;1.60;;
73919;SDS011;62266;53.348;-1.496;2022-09-13T15:56:05;4.28;;;1.90;;
73919;SDS011;62266;53.348;-1.496;2022-09-13T15:58:33;4.70;;;2.15;;
73919;SDS011;62266;53.348;-1.496;2022-09-13T16:01:02;5.10;;;2.17;;
73919;SDS011;62266;53.348;-1.496;2022-09-13T16:03:29;2.42;;;1.45;;
73919;SDS011;62266;53.348;-1.496;2022-09-13T16:05:55;3.97;;;1.67;;
73919;SDS011;62266;53.348;-1.496;2022-09-13T16:08:21;4.90;;;1.60;;
73919;SDS011;62266;53.348;-1.496;2022-09-13T16:10:48;4.63;;;1.75;;
73919;SDS011;62266;53.348;-1.496;2022-09-13T16:13:14;3.57;;;1.67;;
73919;SDS011;62266;53.348;-1.496;2022-09-13T16:15:39;5.72;;;1.98;;
73919;SDS011;62266;53.348;-1.496;2022-09-13T16:18:05;3.97;;;2.03;;
73919;SDS011;62266;53.348;-1.496;2022-09-13T16:20:31;4.60;;;1.60;;
73919;SDS011;62266;53.348;-1.496;2022-09-13T16:22:56;7.33;;;1.90;;
73919;SDS011;62266;53.348;-1.496;2022-09-13T16:25:22;6.68;;;1.92;;
73919;SDS011;62266;53.348;-1.496;2022-09-13T16:27:47;5.23;;;2.00;;
73919;SDS011;62266;53.348;-1.496;2022-09-13T16:30:15;4.05;;;1.85;;
73919;SDS011;62266;53.348;-1.496;2022-09-13T16:32:42;3.70;;;2.03;;
73919;SDS011;62266;53.348;-1.496;2022-09-13T16:35:08;3.53;;;1.67;;
73919;SDS011;62266;53.348;-1.496;2022-09-13T16:37:37;4.43;;;1.90;;
73919;SDS011;62266;53.348;-1.496;2022-09-13T16:40:07;7.50;;;2.15;;
73919;SDS011;62266;53.348;-1.496;2022-09-13T16:42:34;5.32;;;2.00;;
73919;SDS011;62266;53.348;-1.496;2022-09-13T16:45:00;3.50;;;1.73;;
73919;SDS011;62266;53.348;-1.496;2022-09-13T16:47:26;3.77;;;1.77;;
73919;SDS011;62266;53.348;-1.496;2022-09-13T16:49:51;6.70;;;2.00;;
73919;SDS011;62266;53.348;-1.496;2022-09-13T16:52:17;5.22;;;1.90;;
73919;SDS011;62266;53.348;-1.496;2022-09-13T16:54:42;5.27;;;2.10;;
73919;SDS011;62266;53.348;-1.496;2022-09-13T16:57:10;4.65;;;1.92;;
73919;SDS011;62266;53.348;-1.496;2022-09-13T16:59:38;8.65;;;2.30;;
73919;SDS011;62266;53.348;-1.496;2022-09-13T17:02:06;4.03;;;2.07;;
73919;SDS011;62266;53.348;-1.496;2022-09-13T17:04:34;4.57;;;2.30;;
73919;SDS011;62266;53.348;-1.496;2022-09-13T17:06:59;6.80;;;2.00;;
73919;SDS011;62266;53.348;-1.496;2022-09-13T17:09:26;6.35;;;1.90;;
73919;SDS011;62266;53.348;-1.496;2022-09-13T17:11:51;5.85;;;2.05;;
73919;SDS011;62266;53.348;-1.496;2022-09-13T17:14:20;4.00;;;2.00;;
73919;SDS011;62266;53.348;-1.496;2022-09-13T17:16:47;8.73;;;2.10;;
73919;SDS011;62266;53.348;-1.496;2022-09-13T17:19:19;6.22;;;2.33;;
73919;SDS011;62266;53.348;-1.496;2022-09-13T17:21:46;3.10;;;1.63;;
73919;SDS011;62266;53.348;-1.496;2022-09-13T17:24:13;4.38;;;2.10;;
73919;SDS011;62266;53.348;-1.496;2022-09-13T17:26:41;6.00;;;2.00;;
73919;SDS011;62266;53.348;-1.496;2022-09-13T17:29:07;4.32;;;2.20;;
73919;SDS011;62266;53.348;-1.496;2022-09-13T17:31:33;5.30;;;2.33;;
73919;SDS011;62266;53.348;-1.496;2022-09-13T17:33:59;4.70;;;2.00;;
73919;SDS011;62266;53.348;-1.496;2022-09-13T17:36:25;5.73;;;2.53;;
73919;SDS011;62266;53.348;-1.496;2022-09-13T17:38:53;5.53;;;1.97;;
73919;SDS011;62266;53.348;-1.496;2022-09-13T17:41:20;4.95;;;1.73;;
73919;SDS011;62266;53.348;-1.496;2022-09-13T17:43:47;6.07;;;2.03;;
73919;SDS011;62266;53.348;-1.496;2022-09-13T17:46:14;7.40;;;2.07;;
73919;SDS011;62266;53.348;-1.496;2022-09-13T17:48:41;8.55;;;3.10;;
73919;SDS011;62266;53.348;-1.496;2022-09-13T17:51:12;8.63;;;3.42;;
73919;SDS011;62266;53.348;-1.496;2022-09-13T17:53:50;6.47;;;3.83;;
73919;SDS011;62266;53.348;-1.496;2022-09-13T17:56:21;7.25;;;2.42;;
73919;SDS011;62266;53.348;-1.496;2022-09-13T17:58:49;7.93;;;2.70;;
73919;SDS011;62266;53.348;-1.496;2022-09-13T18:01:15;6.00;;;3.63;;
73919;SDS011;62266;53.348;-1.496;2022-09-13T18:03:41;7.00;;;3.97;;
73919;SDS011;62266;53.348;-1.496;2022-09-13T18:06:07;7.90;;;4.27;;
73919;SDS011;62266;53.348;-1.496;2022-09-13T18:08:34;7.03;;;3.65;;
73919;SDS011;62266;53.348;-1.496;2022-09-13T18:11:04;5.72;;;2.35;;
73919;SDS011;62266;53.348;-1.496;2022-09-13T18:13:34;5.17;;;2.27;;
73919;SDS011;62266;53.348;-1.496;2022-09-13T18:16:05;7.30;;;2.70;;
73919;SDS011;62266;53.348;-1.496;2022-09-13T18:18:35;7.95;;;3.63;;